createdAt,value
2022-11-12T00:01:48.521Z,5.60
2022-11-12T00:04:16.137Z,4.00
2022-11-12T00:06:43.835Z,6.00
2022-11-12T00:09:14.274Z,6.00
2022-11-12T00:11:41.939Z,6.00
2022-11-12T00:14:09.723Z,3.20
2022-11-12T00:16:37.368Z,5.20
2022-11-12T00:19:04.986Z,5.60
2022-11-12T00:21:33.129Z,1.00
2022-11-12T00:24:01.110Z,3.60
2022-11-12T00:26:28.776Z,3.80
2022-11-12T00:28:56.461Z,1.40
2022-11-12T00:31:24.185Z,3.20
2022-11-12T00:33:52.134Z,5.60
2022-11-12T00:36:19.837Z,4.40
2022-11-12T00:38:47.427Z,4.80
2022-11-12T00:41:15.032Z,3.40
2022-11-12T00:43:42.712Z,4.40
2022-11-12T00:46:10.984Z,3.00
2022-11-12T00:48:38.567Z,1.40
2022-11-12T00:51:06.215Z,3.20
2022-11-12T00:53:33.809Z,3.00
2022-11-12T00:56:01.452Z,3.00
2022-11-12T00:58:31.096Z,6.20
2022-11-12T01:00:58.795Z,7.00
2022-11-12T01:03:26.505Z,6.20
2022-11-12T01:05:54.174Z,3.00
2022-11-12T01:08:21.788Z,5.20
2022-11-12T01:10:50.670Z,5.80
2022-11-12T01:13:18.328Z,4.80
2022-11-12T01:15:45.904Z,4.00
2022-11-12T01:18:13.545Z,3.20
2022-11-12T01:20:41.197Z,4.00
2022-11-12T01:23:09.113Z,6.00
2022-11-12T01:25:36.713Z,3.80
2022-11-12T01:28:04.862Z,4.00
2022-11-12T01:30:32.436Z,4.00
2022-11-12T01:33:00.050Z,1.00
2022-11-12T01:35:30.101Z,6.00
2022-11-12T01:37:57.700Z,6.00
2022-11-12T01:40:25.279Z,4.00
2022-11-12T01:42:52.909Z,1.00
2022-11-12T01:45:20.512Z,4.40
2022-11-12T01:47:48.408Z,3.60
2022-11-12T01:50:16.444Z,3.60
2022-11-12T01:52:43.993Z,3.60
2022-11-12T01:55:11.568Z,3.00
2022-11-12T01:57:39.200Z,3.20
2022-11-12T02:00:07.112Z,3.00
2022-11-12T02:02:34.674Z,4.40
2022-11-12T02:05:02.268Z,3.80
2022-11-12T02:07:29.849Z,5.20
2022-11-12T02:09:57.405Z,3.20
2022-11-12T02:12:43.278Z,4.40
2022-11-12T02:15:10.885Z,1.80
2022-11-12T02:17:39.502Z,5.60
2022-11-12T02:20:07.128Z,4.80
2022-11-12T02:22:34.733Z,1.00
2022-11-12T02:25:02.667Z,1.40
2022-11-12T02:27:30.936Z,3.60
2022-11-12T02:29:58.527Z,3.00
2022-11-12T02:32:26.079Z,6.00
2022-11-12T02:34:54.018Z,0.80
2022-11-12T02:37:21.963Z,4.80
2022-11-12T02:39:49.530Z,1.00
2022-11-12T02:42:17.170Z,6.00
2022-11-12T02:44:44.734Z,3.00
2022-11-12T02:47:12.360Z,1.00
2022-11-12T02:49:40.320Z,4.40
2022-11-12T02:52:07.870Z,3.40
2022-11-12T02:54:35.431Z,4.00
2022-11-12T02:57:03.372Z,1.40
2022-11-12T02:59:30.940Z,3.00
2022-11-12T03:01:58.897Z,3.00
2022-11-12T03:04:27.993Z,3.00
2022-11-12T03:06:55.586Z,1.00
2022-11-12T03:09:23.240Z,2.60
2022-11-12T03:11:50.864Z,1.00
2022-11-12T03:14:18.859Z,1.00
2022-11-12T03:16:46.424Z,3.00
2022-11-12T03:19:14.388Z,3.00
2022-11-12T03:21:41.960Z,2.60
2022-11-12T03:24:09.534Z,1.00
2022-11-12T03:26:37.386Z,1.40
2022-11-12T03:29:06.324Z,3.00
2022-11-12T03:31:33.869Z,1.00
2022-11-12T03:34:01.520Z,4.00
2022-11-12T03:36:29.061Z,3.00
2022-11-12T03:38:57.018Z,1.40
2022-11-12T03:41:25.458Z,4.40
2022-11-12T03:43:53.017Z,3.00
2022-11-12T03:46:20.583Z,3.40
2022-11-12T03:48:48.174Z,1.00
2022-11-12T03:51:16.881Z,3.00
2022-11-12T03:53:44.950Z,3.00
2022-11-12T03:56:12.565Z,3.00
2022-11-12T03:58:40.670Z,1.80
2022-11-12T04:01:08.750Z,3.20
2022-11-12T04:03:36.779Z,4.00
2022-11-12T04:06:21.640Z,1.40
2022-11-12T04:08:50.277Z,3.00
2022-11-12T04:11:18.215Z,4.00
2022-11-12T04:13:47.973Z,0.00
2022-11-12T04:16:33.072Z,0.80
2022-11-12T04:19:18.022Z,3.20
2022-11-12T04:22:08.704Z,0.60
2022-11-12T04:24:54.093Z,1.00
2022-11-12T04:27:21.705Z,3.40
2022-11-12T04:30:06.483Z,6.60
2022-11-12T04:32:34.087Z,5.60
2022-11-12T04:35:02.075Z,4.80
2022-11-12T04:37:29.718Z,0.20
2022-11-12T04:40:17.458Z,3.00
2022-11-12T04:43:02.565Z,3.80
2022-11-12T04:45:32.144Z,4.20
2022-11-12T04:47:59.705Z,6.60
2022-11-12T04:50:27.243Z,3.00
2022-11-12T04:52:54.837Z,6.60
2022-11-12T04:55:22.375Z,6.00
2022-11-12T04:57:50.917Z,6.60
2022-11-12T05:00:18.969Z,3.40
2022-11-12T05:02:46.502Z,0.60
2022-11-12T05:05:14.466Z,4.40
2022-11-12T05:07:42.090Z,3.00
2022-11-12T05:10:09.748Z,3.00
2022-11-12T05:12:37.312Z,3.00
2022-11-12T05:15:04.892Z,0.60
2022-11-12T05:17:32.444Z,1.00
2022-11-12T05:19:59.990Z,3.00
2022-11-12T05:22:43.200Z,1.40
2022-11-12T05:25:13.464Z,3.00
2022-11-12T05:27:41.096Z,3.80
2022-11-12T05:30:08.665Z,1.40
2022-11-12T05:32:38.057Z,2.20
2022-11-12T05:35:05.629Z,4.00
2022-11-12T05:37:33.179Z,0.40
2022-11-12T05:40:00.975Z,3.00
2022-11-12T05:42:28.563Z,1.00
2022-11-12T05:44:57.013Z,2.60
2022-11-12T05:47:25.003Z,2.60
2022-11-12T05:49:52.614Z,3.00
2022-11-12T05:52:20.182Z,1.00
2022-11-12T05:54:47.748Z,2.60
2022-11-12T05:57:17.753Z,3.80
2022-11-12T05:59:45.305Z,4.40
2022-11-12T06:02:12.919Z,5.60
2022-11-12T06:04:40.526Z,5.60
2022-11-12T06:07:08.085Z,3.80
2022-11-12T06:09:36.743Z,5.60
2022-11-12T06:12:06.900Z,3.20
2022-11-12T06:14:34.748Z,3.20
2022-11-12T06:17:02.281Z,3.20
2022-11-12T06:19:30.302Z,1.00
2022-11-12T06:21:58.833Z,3.00
2022-11-12T06:24:30.664Z,6.00
2022-11-12T06:27:01.436Z,7.00
2022-11-12T06:29:30.291Z,0.00
2022-11-12T06:31:57.877Z,3.40
2022-11-12T06:34:27.963Z,3.20
2022-11-12T06:36:55.502Z,4.00
2022-11-12T06:39:23.085Z,4.00
2022-11-12T06:41:50.695Z,4.00
2022-11-12T06:44:22.165Z,6.20
2022-11-12T06:46:50.500Z,4.80
2022-11-12T06:49:18.134Z,0.00
2022-11-12T06:51:46.109Z,2.20
2022-11-12T06:54:13.728Z,3.00
2022-11-12T06:56:41.339Z,4.00
2022-11-12T06:59:11.508Z,1.00
2022-11-12T07:01:39.280Z,1.00
2022-11-12T07:04:06.975Z,2.20
2022-11-12T07:06:34.659Z,1.00
2022-11-12T07:09:02.300Z,0.00
2022-11-12T07:11:30.271Z,4.00
2022-11-12T07:13:58.438Z,2.20
2022-11-12T07:16:26.035Z,4.00
2022-11-12T07:18:53.731Z,1.00
2022-11-12T07:21:21.409Z,3.40
2022-11-12T07:23:49.345Z,0.40
2022-11-12T07:26:18.022Z,1.00
2022-11-12T07:28:46.217Z,3.60
2022-11-12T07:31:13.856Z,4.00
2022-11-12T07:33:41.540Z,3.00
2022-11-12T07:36:14.200Z,4.00
2022-11-12T07:38:41.889Z,3.80
2022-11-12T07:41:09.546Z,3.60
2022-11-12T07:43:37.219Z,4.00
2022-11-12T07:46:10.092Z,4.00
2022-11-12T07:48:40.475Z,6.00
2022-11-12T07:51:08.104Z,3.60
2022-11-12T07:53:35.708Z,4.00
2022-11-12T07:56:04.779Z,6.00
2022-11-12T07:58:32.439Z,4.00
2022-11-12T08:01:00.476Z,5.20
2022-11-12T08:03:28.168Z,3.80
2022-11-12T08:05:55.874Z,5.60
2022-11-12T08:08:23.731Z,5.20
2022-11-12T08:10:51.575Z,4.00
2022-11-12T08:13:19.766Z,0.40
2022-11-12T08:15:52.062Z,3.00
2022-11-12T08:18:20.468Z,4.00
2022-11-12T08:20:48.076Z,1.80
2022-11-12T08:23:15.748Z,4.40
2022-11-12T08:25:45.841Z,3.60
2022-11-12T08:28:13.375Z,1.40
2022-11-12T08:30:41.035Z,4.00
2022-11-12T08:33:08.906Z,0.40
2022-11-12T08:35:36.630Z,3.20
2022-11-12T08:38:04.740Z,4.00
2022-11-12T08:40:32.355Z,1.00
2022-11-12T08:43:00.266Z,4.00
2022-11-12T08:45:27.974Z,5.20
2022-11-12T08:47:55.606Z,3.00
2022-11-12T08:50:23.747Z,2.60
2022-11-12T08:52:51.453Z,4.80
2022-11-12T08:55:19.186Z,0.00
2022-11-12T08:57:46.949Z,3.00
2022-11-12T09:00:14.758Z,4.00
2022-11-12T09:02:43.374Z,3.60
2022-11-12T09:05:11.078Z,1.00
2022-11-12T09:07:54.091Z,5.00
2022-11-12T09:10:22.049Z,4.00
2022-11-12T09:12:50.190Z,4.60
2022-11-12T09:18:05.904Z,3.20
2022-11-12T09:20:33.670Z,6.00
2022-11-12T09:23:02.266Z,6.00
2022-11-12T09:25:30.200Z,4.00
2022-11-12T09:27:57.924Z,6.00
2022-11-12T09:30:25.580Z,3.00
2022-11-12T09:32:53.600Z,4.50
2022-11-12T09:35:21.997Z,3.50
2022-11-12T09:37:49.691Z,6.00
2022-11-12T09:40:17.856Z,5.50
2022-11-12T09:42:45.482Z,1.00
2022-11-12T09:45:13.570Z,6.00
2022-11-12T09:47:44.000Z,6.25
2022-11-12T09:50:11.838Z,6.00
2022-11-12T09:52:40.126Z,8.00
2022-11-12T09:55:07.919Z,3.50
2022-11-12T09:57:35.862Z,6.50
2022-11-12T10:00:05.894Z,4.50
2022-11-12T10:02:33.701Z,7.00
2022-11-12T10:05:02.402Z,7.00
2022-11-12T10:07:30.194Z,6.00
2022-11-12T10:09:58.426Z,5.00
2022-11-12T10:12:37.168Z,4.00
2022-11-12T10:15:24.915Z,7.00
2022-11-12T10:17:51.674Z,9.50
2022-11-12T10:20:19.477Z,7.00
2022-11-12T10:22:48.897Z,6.50
2022-11-12T10:25:16.646Z,6.00
2022-11-12T10:27:44.809Z,6.25
2022-11-12T10:30:12.776Z,8.50
2022-11-12T10:32:40.576Z,7.00
2022-11-12T10:35:09.185Z,6.25
2022-11-12T10:37:37.296Z,5.50
2022-11-12T10:40:05.020Z,7.00
2022-11-12T10:42:32.846Z,7.00
2022-11-12T10:45:00.867Z,5.00
2022-11-12T10:47:29.331Z,4.00
2022-11-12T10:49:57.466Z,11.50
2022-11-12T10:52:25.469Z,9.00
2022-11-12T10:54:55.239Z,7.50
2022-11-12T10:57:23.310Z,9.00
2022-11-12T10:59:51.672Z,9.25
2022-11-12T11:02:19.511Z,7.50
2022-11-12T11:04:47.572Z,8.50
2022-11-12T11:07:15.634Z,9.00
2022-11-12T11:09:43.799Z,9.50
2022-11-12T11:12:12.952Z,3.50
2022-11-12T11:14:41.042Z,6.50
2022-11-12T11:17:09.730Z,6.00
2022-11-12T11:19:37.669Z,6.25
2022-11-12T11:22:05.647Z,4.00
2022-11-12T11:24:33.506Z,3.25
2022-11-12T11:27:01.230Z,6.50
2022-11-12T11:29:29.277Z,7.50
2022-11-12T11:31:57.209Z,6.00
2022-11-12T11:34:25.462Z,8.50
2022-11-12T11:36:56.449Z,6.00
2022-11-12T11:39:24.434Z,6.00
2022-11-12T11:41:52.240Z,8.00
2022-11-12T11:44:22.289Z,6.00
2022-11-12T11:46:50.226Z,5.50
2022-11-12T11:49:18.403Z,6.00
2022-11-12T11:51:46.230Z,6.00
2022-11-12T11:54:14.007Z,5.00
2022-11-12T11:56:42.134Z,5.00
2022-11-12T11:59:10.073Z,6.00
2022-11-12T12:01:39.642Z,4.00
2022-11-12T12:04:07.523Z,2.00
2022-11-12T12:06:35.522Z,5.00
2022-11-12T12:09:03.509Z,3.75
2022-11-12T12:11:31.369Z,4.00
2022-11-12T12:13:59.330Z,3.00
2022-11-12T12:16:27.026Z,4.00
2022-11-12T12:18:55.144Z,2.60
2022-11-12T12:21:22.968Z,4.50
2022-11-12T12:23:50.678Z,3.50
2022-11-12T12:26:19.176Z,4.50
2022-11-12T12:28:47.204Z,5.25
2022-11-12T12:31:15.084Z,6.50
2022-11-12T12:33:42.963Z,4.50
2022-11-12T12:36:11.017Z,6.00
2022-11-12T12:38:40.140Z,3.50
2022-11-12T12:41:07.995Z,3.00
2022-11-12T12:43:36.074Z,0.80
2022-11-12T12:46:03.862Z,3.80
2022-11-12T12:48:31.694Z,4.50
2022-11-12T12:50:59.923Z,4.00
2022-11-12T12:53:27.617Z,4.00
2022-11-12T12:55:55.455Z,3.00
2022-11-12T12:58:23.543Z,1.40
2022-11-12T13:00:51.884Z,3.20
2022-11-12T13:03:22.833Z,3.80
2022-11-12T13:05:50.763Z,3.00
2022-11-12T13:08:18.584Z,3.80
2022-11-12T13:10:46.390Z,3.00
2022-11-12T13:13:14.389Z,3.00
2022-11-12T13:15:44.182Z,2.20
2022-11-12T13:18:17.024Z,1.00
2022-11-12T13:20:45.171Z,3.40
2022-11-12T13:23:12.965Z,4.40
2022-11-12T13:25:40.820Z,3.00
2022-11-12T13:28:09.271Z,3.00
2022-11-12T13:30:37.150Z,3.80
2022-11-12T13:33:11.528Z,1.00
2022-11-12T13:35:39.915Z,3.00
2022-11-12T13:38:07.767Z,1.00
2022-11-12T13:40:36.040Z,1.40
2022-11-12T13:43:03.912Z,3.00
2022-11-12T13:45:32.470Z,2.20
2022-11-12T13:48:00.360Z,3.80
2022-11-12T13:50:28.283Z,2.20
2022-11-12T13:52:57.046Z,3.00
2022-11-12T13:55:24.929Z,1.80
2022-11-12T13:57:52.976Z,3.80
2022-11-12T14:00:21.298Z,3.40
2022-11-12T14:02:49.702Z,3.00
2022-11-12T14:05:21.652Z,3.00
2022-11-12T14:07:49.483Z,2.20
2022-11-12T14:10:17.277Z,1.80
2022-11-12T14:12:45.528Z,3.00
2022-11-12T14:15:13.423Z,3.00
2022-11-12T14:17:41.597Z,7.40
2022-11-12T14:20:09.545Z,14.40
2022-11-12T14:22:37.385Z,10.40
2022-11-12T14:25:05.508Z,10.40
2022-11-12T14:27:33.356Z,5.60
2022-11-12T14:30:03.384Z,15.50
2022-11-12T14:32:31.131Z,12.00
2022-11-12T14:34:59.025Z,12.00
2022-11-12T14:37:26.827Z,9.80
2022-11-12T14:39:54.796Z,6.60
2022-11-12T14:42:23.250Z,6.00
2022-11-12T14:44:51.106Z,5.20
2022-11-12T14:47:19.324Z,3.80
2022-11-12T14:49:47.397Z,4.00
2022-11-12T14:52:15.206Z,3.00
2022-11-12T14:54:45.342Z,3.00
2022-11-12T14:57:13.149Z,3.80
2022-11-12T14:59:41.019Z,3.00
2022-11-12T15:04:58.499Z,3.00
2022-11-12T15:07:26.324Z,3.50
2022-11-12T15:09:54.279Z,4.00
2022-11-12T15:12:22.146Z,3.50
2022-11-12T15:14:49.967Z,1.50
2022-11-12T15:17:18.198Z,2.00
2022-11-12T15:19:46.157Z,7.00
2022-11-12T15:22:13.968Z,3.00
2022-11-12T15:24:44.028Z,3.00
2022-11-12T15:27:12.044Z,4.00
2022-11-12T15:29:40.765Z,3.75
2022-11-12T15:32:13.361Z,5.00
2022-11-12T15:34:41.871Z,6.50
2022-11-12T15:37:09.798Z,4.00
2022-11-12T15:39:37.662Z,3.00
2022-11-12T15:42:07.957Z,4.00
2022-11-12T15:44:35.693Z,2.00
2022-11-12T15:47:03.662Z,5.00
2022-11-12T15:49:33.444Z,7.00
2022-11-12T15:52:01.226Z,6.25
2022-11-12T15:54:30.732Z,5.00
2022-11-12T15:56:58.861Z,7.00
2022-11-12T15:59:26.555Z,6.00
2022-11-12T16:01:54.399Z,4.50
2022-11-12T16:04:22.534Z,3.00
2022-11-12T16:06:50.886Z,4.25
2022-11-12T16:09:19.081Z,21.50
2022-11-12T16:11:47.022Z,66.00
2022-11-12T16:14:15.035Z,20.50
2022-11-12T16:16:42.819Z,12.50
2022-11-12T16:19:11.979Z,10.50
2022-11-12T16:21:39.884Z,6.75
2022-11-12T16:24:07.706Z,6.50
2022-11-12T16:26:35.813Z,9.50
2022-11-12T16:29:03.784Z,9.50
2022-11-12T16:31:32.071Z,8.50
2022-11-12T16:34:00.429Z,3.50
2022-11-12T16:36:28.355Z,7.00
2022-11-12T16:38:56.234Z,7.00
2022-11-12T16:41:24.220Z,6.00
2022-11-12T16:43:54.267Z,6.50
2022-11-12T16:46:21.968Z,4.00
2022-11-12T16:48:49.926Z,3.00
2022-11-12T16:51:18.596Z,3.50
2022-11-12T16:53:46.506Z,3.50
2022-11-12T16:56:18.489Z,4.75
2022-11-12T16:58:46.331Z,3.00
2022-11-12T17:01:14.199Z,6.00
2022-11-12T17:03:42.020Z,5.50
2022-11-12T17:06:09.855Z,3.25
2022-11-12T17:08:38.116Z,6.00
2022-11-12T17:11:06.020Z,6.50
2022-11-12T17:13:33.933Z,6.50
2022-11-12T17:16:01.853Z,4.00
2022-11-12T17:18:30.099Z,6.25
2022-11-12T17:20:58.509Z,3.00
2022-11-12T17:23:26.872Z,7.50
2022-11-12T17:25:55.037Z,6.75
2022-11-12T17:28:22.820Z,11.75
2022-11-12T17:30:50.717Z,7.00
2022-11-12T17:33:19.095Z,9.50
2022-11-12T17:35:46.889Z,7.00
2022-11-12T17:38:15.720Z,10.00
2022-11-12T17:40:43.653Z,9.50
2022-11-12T17:43:11.476Z,10.00
2022-11-12T17:45:40.877Z,9.50
2022-11-12T17:48:08.846Z,10.00
2022-11-12T17:50:36.689Z,15.25
2022-11-12T17:53:04.455Z,13.00
2022-11-12T17:55:32.678Z,4.50
2022-11-12T17:58:01.755Z,7.50
2022-11-12T18:00:29.623Z,7.00
2022-11-12T18:02:58.108Z,6.00
2022-11-12T18:05:25.924Z,7.00
2022-11-12T18:07:53.843Z,6.50
2022-11-12T18:10:24.348Z,7.00
2022-11-12T18:12:52.162Z,9.00
2022-11-12T18:15:20.040Z,9.75
2022-11-12T18:17:47.823Z,6.00
2022-11-12T18:20:15.579Z,5.50
2022-11-12T18:22:45.734Z,7.00
2022-11-12T18:25:14.250Z,6.50
2022-11-12T18:27:42.015Z,9.25
2022-11-12T18:30:15.018Z,8.00
2022-11-12T18:32:48.596Z,7.00
2022-11-12T18:35:16.401Z,12.50
2022-11-12T18:37:44.150Z,11.60
2022-11-12T18:40:12.013Z,5.50
2022-11-12T18:42:39.826Z,12.00
2022-11-12T18:45:08.109Z,9.25
2022-11-12T18:47:36.160Z,6.00
2022-11-12T18:50:08.664Z,6.75
2022-11-12T18:52:37.075Z,7.00
2022-11-12T18:55:05.024Z,9.00
2022-11-12T18:57:33.847Z,12.60
2022-11-12T19:00:01.885Z,7.00
2022-11-12T19:02:29.769Z,9.25
2022-11-12T19:04:57.505Z,19.40
2022-11-12T19:07:25.539Z,16.40
2022-11-12T19:09:54.524Z,24.00
2022-11-12T19:12:22.430Z,10.40
2022-11-12T19:14:50.475Z,19.40
2022-11-12T19:17:18.237Z,27.40
2022-11-12T19:19:46.095Z,21.60
2022-11-12T19:22:15.066Z,15.00
2022-11-12T19:24:43.267Z,7.00
2022-11-12T19:27:11.120Z,8.00
2022-11-12T19:29:39.255Z,3.00
2022-11-12T19:32:07.831Z,12.00
2022-11-12T19:34:38.308Z,10.75
2022-11-12T19:37:31.678Z,15.25
2022-11-12T19:39:54.587Z,14.75
2022-11-12T19:42:22.590Z,13.00
2022-11-12T19:44:52.522Z,14.75
2022-11-12T19:47:20.297Z,12.00
2022-11-12T19:49:48.781Z,10.75
2022-11-12T19:52:16.504Z,1.00
2022-11-12T19:54:44.187Z,6.75
2022-11-12T19:57:12.826Z,5.00
2022-11-12T19:59:40.842Z,9.75
2022-11-12T20:02:08.590Z,7.75
2022-11-12T20:04:36.684Z,12.25
2022-11-12T20:07:04.595Z,11.50
2022-11-12T20:09:34.799Z,10.50
2022-11-12T20:12:02.700Z,6.75
2022-11-12T20:14:31.180Z,6.25
2022-11-12T20:16:58.951Z,7.00
2022-11-12T20:19:26.942Z,5.00
2022-11-12T20:21:54.718Z,7.75
2022-11-12T20:24:22.541Z,8.00
2022-11-12T20:26:50.434Z,7.40
2022-11-12T20:29:18.207Z,9.00
2022-11-12T20:31:46.215Z,9.00
2022-11-12T20:34:14.907Z,8.50
2022-11-12T20:36:42.771Z,12.00
2022-11-12T20:39:10.637Z,10.40
2022-11-12T20:41:38.647Z,9.20
2022-11-12T20:44:06.501Z,10.00
2022-11-12T20:46:34.765Z,5.00
2022-11-12T20:49:02.842Z,6.00
2022-11-12T20:51:30.865Z,3.50
2022-11-12T20:54:00.511Z,6.40
2022-11-12T20:56:29.040Z,9.00
2022-11-12T20:58:56.940Z,10.00
2022-11-12T21:01:24.848Z,13.80
2022-11-12T21:03:52.845Z,9.40
2022-11-12T21:06:20.785Z,10.80
2022-11-12T21:08:48.622Z,6.00
2022-11-12T21:11:16.840Z,8.50
2022-11-12T21:13:44.697Z,11.00
2022-11-12T21:16:12.582Z,4.00
2022-11-12T21:18:40.942Z,7.00
2022-11-12T21:21:08.807Z,9.80
2022-11-12T21:23:39.704Z,5.00
2022-11-12T21:26:07.679Z,9.40
2022-11-12T21:28:38.755Z,8.60
2022-11-12T21:31:06.595Z,10.00
2022-11-12T21:33:34.552Z,12.60
2022-11-12T21:36:04.356Z,6.40
2022-11-12T21:38:32.227Z,9.00
2022-11-12T21:41:00.223Z,6.40
2022-11-12T21:43:28.390Z,6.60
2022-11-12T21:45:56.230Z,8.60
2022-11-12T21:48:25.607Z,8.20
2022-11-12T21:50:53.563Z,7.00
2022-11-12T21:53:21.353Z,5.20
2022-11-12T21:55:49.351Z,8.60
2022-11-12T21:58:17.232Z,9.00
2022-11-12T22:00:46.466Z,9.60
2022-11-12T22:03:14.363Z,7.00
2022-11-12T22:05:42.284Z,6.00
2022-11-12T22:08:10.174Z,7.00
2022-11-12T22:10:38.118Z,12.80
2022-11-12T22:13:26.067Z,9.20
2022-11-12T22:15:54.773Z,9.00
2022-11-12T22:18:22.503Z,4.00
2022-11-12T22:20:50.666Z,7.00
2022-11-12T22:23:21.649Z,9.80
2022-11-12T22:25:50.916Z,7.00
2022-11-12T22:28:18.673Z,9.80
2022-11-12T22:30:46.705Z,12.00
2022-11-12T22:33:14.542Z,11.60
2022-11-12T22:35:44.581Z,10.40
2022-11-12T22:38:12.454Z,4.40
2022-11-12T22:40:40.198Z,4.00
2022-11-12T22:43:08.011Z,6.60
2022-11-12T22:45:35.949Z,8.20
2022-11-12T22:48:03.974Z,7.40
2022-11-12T22:50:31.932Z,4.80
2022-11-12T22:52:59.821Z,6.00
2022-11-12T22:55:27.630Z,11.60
2022-11-12T22:57:55.261Z,11.60
2022-11-12T23:00:23.495Z,6.20
2022-11-12T23:02:51.779Z,15.60
2022-11-12T23:05:19.504Z,11.20
2022-11-12T23:07:47.359Z,7.00
2022-11-12T23:10:15.039Z,10.40
2022-11-12T23:12:45.638Z,6.40
2022-11-12T23:15:13.411Z,6.40
2022-11-12T23:17:41.231Z,4.00
2022-11-12T23:20:09.571Z,4.40
2022-11-12T23:22:37.353Z,9.20
2022-11-12T23:25:05.816Z,12.40
2022-11-12T23:27:33.539Z,13.00
2022-11-12T23:30:01.291Z,8.20
2022-11-12T23:32:28.978Z,6.00
2022-11-12T23:34:56.678Z,5.60
2022-11-12T23:37:26.270Z,6.20
2022-11-12T23:39:54.005Z,4.40
2022-11-12T23:42:21.688Z,6.00
2022-11-12T23:44:49.454Z,6.40
2022-11-12T23:47:17.572Z,8.60
2022-11-12T23:49:48.642Z,7.20
2022-11-12T23:52:18.647Z,6.40
2022-11-12T23:54:46.730Z,6.00
2022-11-12T23:57:14.543Z,4.80
2022-11-12T23:59:42.213Z,4.00
